Airfield :
LOGIN :

Register | Disclaimer

   EN    FR    IT 

 










Legend :    VFR   Marginal VFR   IFR   Intensive IFR   Very Intensive IFR
Visi :
Ceiling :
>= 8 km
>= 3000ft
5 to 8 km
1000 to 3000 ft
1500m to 5 km
500 to 1000 ft
800 to 1500m
200 to 500 ft
< 800m
< 200 ft
Symbols :   Thunderstorms  Fog  Heavy snow  Heavy precipitations  Wind > 20 kt
SIGMETs :     Misc.  Thunderstorms  Icing  Turbulence  Mountain Waves  Volcanic Ashes







- Airport Elevation : 197 ft
- IATA code : XOG
- Download approach charts


LFMO - Orange

CURRENT METAR :
  • 160630Z AUTO 36020KT 9000 NSC 19/12 Q1018 BECMG 35015G25KT

EXPIRED METARs :
  • 160600Z AUTO 35021KT 320V020 CAVOK 18/12 Q1018 BECMG 35015G25KT
  • 160530Z AUTO 35019G30KT CAVOK 18/12 Q1018 NOSIG
  • 160500Z AUTO 35016KT CAVOK 17/12 Q1018 BECMG 35015G25KT
  • 160430Z AUTO 35015G25KT CAVOK 17/12 Q1018 NOSIG
  • 160400Z AUTO 35019KT CAVOK 17/12 Q1018 BECMG 35015G25KT

TAF TAF LFMO
Valid from the 16 at 03:00 until the 17 at 03:00 UTC


160200Z 1603/1703 35015KT CAVOK
BECMG 1605/1607 35015G25KT
TEMPO 1610/1621 35020G35KT
BECMG 1701/1703 35015KT
No reported NOTAMs for that airfield.



MET'MAP, your aeronautical weather chart ! - Copyright ORBIFLY December 2007 - Disclaimer

ORBIFLY MET'MAP TEAM :

Programming & Development : Alexandra Zaïnal
Concept & Development : Baudouin d'Aumeries
Co-Development & Prog : Marc-Olivier Méhu
Technical & hardware support : Manuel Goepfert

Contact : metmap@orbifly.com




SOURCES & CREDITS :

   NOAA